Terminal Aerodrome Forecast
Issued by NWS Huntsville, AL

Home | Current Version | Previous Version | Text Only | Print | Product List | Glossary On
Versions: 1 2 3 4 5 6 7 8 9 10 11 12 13 14 15 16 17 18 19 20 21 22 23 24 25 26 27 28 29 30 31 32 33 34 35
000
FTUS44 KHUN 101120
TAFHSV
TAF
KHSV 101120Z 1012/1112 00000KT P6SM VCTS BKN040CB OVC090
      TEMPO 1012/1015 4SM -TSRA BR BKN030CB
     FM101500 04005KT P6SM BKN050 BKN250
     FM101900 05007KT P6SM SCT050 SCT250
     FM110100 02003KT P6SM SKC=

USA.gov is the U.S. government's official web portal to all federal, state and local government web resources and services.